createdAt,value
2019-04-07T00:00:50.261Z,41.93
2019-04-07T00:03:18.630Z,40.40
2019-04-07T00:05:47.245Z,39.67
2019-04-07T00:08:15.676Z,42.67
2019-04-07T00:10:44.679Z,40.97
2019-04-07T00:13:13.707Z,41.40
2019-04-07T00:15:42.081Z,43.97
2019-04-07T00:18:10.464Z,36.93
2019-04-07T00:20:38.855Z,43.07
2019-04-07T00:23:07.237Z,71.93
2019-04-07T00:25:36.284Z,55.23
2019-04-07T00:28:05.428Z,47.07
2019-04-07T00:30:33.921Z,45.17
2019-04-07T00:33:02.300Z,42.73
2019-04-07T00:35:32.572Z,43.93
2019-04-07T00:38:00.823Z,45.73
2019-04-07T00:40:29.487Z,45.53
2019-04-07T00:42:58.321Z,49.97
2019-04-07T00:45:26.836Z,47.03
2019-04-07T00:47:55.897Z,44.23
2019-04-07T00:50:24.400Z,44.97
2019-04-07T00:52:53.111Z,51.20
2019-04-07T00:55:22.086Z,48.90
2019-04-07T00:57:50.800Z,53.00
2019-04-07T01:00:20.330Z,53.57
2019-04-07T01:02:48.783Z,53.23
2019-04-07T01:05:17.180Z,53.97
2019-04-07T01:07:46.354Z,61.27
2019-04-07T01:10:15.146Z,69.07
2019-04-07T01:12:43.649Z,70.47
2019-04-07T01:15:12.515Z,68.53
2019-04-07T01:17:40.984Z,70.40
2019-04-07T01:20:10.680Z,65.30
2019-04-07T01:22:39.767Z,69.60
2019-04-07T01:25:08.951Z,71.83
2019-04-07T01:27:37.859Z,64.53
2019-04-07T01:30:07.178Z,53.37
2019-04-07T01:32:35.801Z,53.10
2019-04-07T01:35:05.816Z,52.00
2019-04-07T01:37:34.244Z,50.43
2019-04-07T01:40:03.124Z,49.63
2019-04-07T01:42:48.817Z,51.17
2019-04-07T01:45:24.533Z,51.13
2019-04-07T01:48:00.723Z,50.47
2019-04-07T01:50:33.904Z,47.60
2019-04-07T01:53:10.049Z,43.00
2019-04-07T01:55:52.240Z,47.10
2019-04-07T01:58:40.709Z,50.33
2019-04-07T02:01:10.889Z,52.77
2019-04-07T02:03:43.590Z,51.07
2019-04-07T02:06:29.999Z,51.50
2019-04-07T02:09:02.980Z,54.17
2019-04-07T02:11:49.613Z,58.10
2019-04-07T02:14:20.175Z,57.47
2019-04-07T02:16:51.118Z,57.53
2019-04-07T02:19:37.847Z,55.73
2019-04-07T02:22:08.473Z,57.93
2019-04-07T02:24:38.868Z,58.80
2019-04-07T02:27:11.487Z,62.10
2019-04-07T02:29:54.179Z,61.83
2019-04-07T02:32:40.655Z,58.17
2019-04-07T02:35:28.044Z,53.07
2019-04-07T02:38:08.267Z,51.73
2019-04-07T02:40:53.930Z,53.30
2019-04-07T02:43:29.631Z,57.60
2019-04-07T02:46:05.835Z,52.50
2019-04-07T02:48:35.927Z,52.60
2019-04-07T02:51:22.697Z,54.50
2019-04-07T02:54:09.442Z,57.53
2019-04-07T02:56:52.377Z,62.93
2019-04-07T02:59:41.491Z,60.90
2019-04-07T03:02:17.805Z,66.50
2019-04-07T03:05:05.016Z,67.37
2019-04-07T03:07:53.104Z,72.13
2019-04-07T03:10:33.265Z,69.33
2019-04-07T03:13:09.352Z,70.20
2019-04-07T03:15:42.800Z,75.33
2019-04-07T03:18:24.216Z,61.37
2019-04-07T03:20:53.860Z,54.10
2019-04-07T03:23:27.345Z,58.83
2019-04-07T03:26:00.836Z,55.10
2019-04-07T03:28:37.117Z,52.10
2019-04-07T03:31:23.950Z,45.10
2019-04-07T03:33:59.518Z,43.03
2019-04-07T03:37:09.710Z,39.23
2019-04-07T03:39:26.607Z,40.47
2019-04-07T03:42:12.512Z,42.33
2019-04-07T03:44:54.615Z,42.27
2019-04-07T03:47:25.795Z,42.83
2019-04-07T03:49:56.929Z,51.20
2019-04-07T03:52:27.293Z,47.43
2019-04-07T03:55:03.048Z,47.90
2019-04-07T03:57:36.329Z,44.93
2019-04-07T04:00:23.191Z,44.57
2019-04-07T04:02:56.680Z,44.77
2019-04-07T04:05:33.911Z,44.23
2019-04-07T04:08:10.091Z,44.50
2019-04-07T04:10:48.440Z,44.00
2019-04-07T04:13:19.970Z,47.50
2019-04-07T04:15:51.440Z,46.90
2019-04-07T04:18:20.558Z,46.87
2019-04-07T04:20:49.128Z,50.90
2019-04-07T04:23:17.842Z,53.40
2019-04-07T04:25:47.075Z,54.17
2019-04-07T04:28:16.351Z,59.20
2019-04-07T04:30:44.816Z,59.23
2019-04-07T04:33:13.218Z,55.10
2019-04-07T04:35:41.610Z,47.67
2019-04-07T04:38:10.286Z,47.77
2019-04-07T04:40:39.516Z,47.90
2019-04-07T04:43:08.951Z,48.97
2019-04-07T04:45:38.467Z,52.13
2019-04-07T04:48:07.057Z,54.20
2019-04-07T04:50:35.530Z,50.50
2019-04-07T04:53:04.106Z,53.43
2019-04-07T04:55:32.690Z,55.73
2019-04-07T04:58:02.056Z,61.80
2019-04-07T05:00:30.645Z,61.47
2019-04-07T05:02:59.383Z,64.60
2019-04-07T05:05:28.079Z,71.13
2019-04-07T05:08:02.725Z,77.43
2019-04-07T05:10:26.613Z,80.50
2019-04-07T05:12:55.028Z,80.43
2019-04-07T05:15:24.162Z,82.73
2019-04-07T05:17:52.616Z,85.67
2019-04-07T05:20:21.720Z,86.70
2019-04-07T05:22:50.167Z,81.03
2019-04-07T05:25:18.560Z,85.10
2019-04-07T05:27:46.949Z,94.60
2019-04-07T05:30:15.640Z,140.73
2019-04-07T05:32:44.339Z,97.67
2019-04-07T05:35:13.185Z,85.50
2019-04-07T05:37:41.803Z,83.00
2019-04-07T05:40:29.559Z,87.70
2019-04-07T05:42:58.687Z,86.37
2019-04-07T05:45:27.913Z,92.43
2019-04-07T05:47:56.387Z,88.90
2019-04-07T05:50:27.488Z,80.43
2019-04-07T05:52:54.900Z,75.87
2019-04-07T05:55:24.365Z,75.80
2019-04-07T05:57:53.182Z,74.67
2019-04-07T06:00:21.866Z,77.30
2019-04-07T06:02:50.769Z,79.77
2019-04-07T06:05:19.703Z,84.07
2019-04-07T06:07:48.130Z,84.63
2019-04-07T06:10:16.688Z,86.50
2019-04-07T06:12:47.355Z,86.97
2019-04-07T06:15:20.238Z,86.00
2019-04-07T06:17:45.811Z,79.73
2019-04-07T06:20:15.917Z,77.93
2019-04-07T06:22:46.642Z,74.47
2019-04-07T06:25:14.596Z,71.93
2019-04-07T06:27:45.263Z,69.20
2019-04-07T06:30:14.518Z,66.90
2019-04-07T06:32:43.976Z,64.13
2019-04-07T06:35:14.138Z,62.40
2019-04-07T06:37:42.931Z,60.23
2019-04-07T06:40:12.245Z,60.50
2019-04-07T06:42:40.815Z,57.83
2019-04-07T06:45:10.978Z,57.27
2019-04-07T06:47:49.868Z,55.80
2019-04-07T06:50:47.573Z,56.37
2019-04-07T06:53:21.106Z,53.60
2019-04-07T06:56:03.055Z,54.77
2019-04-07T06:58:33.085Z,53.37
2019-04-07T07:01:13.230Z,53.40
2019-04-07T07:03:46.387Z,50.33
2019-04-07T07:06:18.189Z,53.00
2019-04-07T07:09:03.487Z,47.73
2019-04-07T07:11:42.846Z,46.27
2019-04-07T07:14:14.359Z,45.40
2019-04-07T07:16:46.698Z,42.13
2019-04-07T07:19:16.951Z,42.00
2019-04-07T07:21:47.786Z,38.47
2019-04-07T07:24:21.468Z,36.80
2019-04-07T07:26:46.312Z,34.90
2019-04-07T07:29:16.235Z,33.33
2019-04-07T07:31:44.907Z,33.77
2019-04-07T07:34:13.363Z,32.17
2019-04-07T07:36:41.996Z,30.40
2019-04-07T07:39:12.520Z,29.47
2019-04-07T07:41:41.037Z,30.97
2019-04-07T07:44:09.784Z,32.30
2019-04-07T07:46:38.594Z,32.73
2019-04-07T07:49:07.127Z,31.43
2019-04-07T07:51:37.726Z,30.10
2019-04-07T07:54:05.673Z,30.93
2019-04-07T07:56:34.562Z,29.40
2019-04-07T07:59:03.577Z,29.90
2019-04-07T08:01:32.339Z,28.13
2019-04-07T08:04:01.920Z,28.87
2019-04-07T08:06:30.520Z,28.50
2019-04-07T08:09:09.993Z,27.77
2019-04-07T08:11:31.529Z,26.50
2019-04-07T08:13:59.155Z,27.77
2019-04-07T08:16:31.226Z,26.63
2019-04-07T08:19:00.300Z,27.27
2019-04-07T08:21:28.063Z,28.10
2019-04-07T08:23:56.796Z,27.50
2019-04-07T08:26:26.023Z,28.47
2019-04-07T08:28:54.768Z,27.67
2019-04-07T08:31:24.044Z,27.87
2019-04-07T08:33:52.796Z,27.43
2019-04-07T08:36:21.304Z,26.83
2019-04-07T08:38:51.800Z,25.97
2019-04-07T08:41:19.808Z,26.20
2019-04-07T08:43:48.402Z,26.67
2019-04-07T08:46:16.864Z,28.17
2019-04-07T08:48:45.435Z,26.63
2019-04-07T08:51:13.825Z,24.93
2019-04-07T08:53:44.974Z,27.40
2019-04-07T08:56:13.196Z,26.87
2019-04-07T08:58:42.481Z,23.40
2019-04-07T09:01:11.056Z,25.10
2019-04-07T09:03:40.002Z,25.13
2019-04-07T09:06:08.507Z,22.50
2019-04-07T09:08:38.228Z,23.80
2019-04-07T09:11:14.628Z,24.00
2019-04-07T09:13:44.753Z,21.57
2019-04-07T09:16:33.680Z,20.90
2019-04-07T09:19:06.921Z,22.00
2019-04-07T09:21:42.168Z,22.37
2019-04-07T09:24:11.444Z,23.87
2019-04-07T09:26:58.046Z,20.40
2019-04-07T09:29:32.448Z,20.50
2019-04-07T09:32:14.523Z,21.20
2019-04-07T09:35:02.628Z,20.03
2019-04-07T09:37:38.883Z,21.13
2019-04-07T09:40:09.422Z,21.63
2019-04-07T09:42:48.204Z,20.73
2019-04-07T09:45:34.574Z,20.57
2019-04-07T09:48:04.592Z,19.67
2019-04-07T09:50:37.599Z,19.70
2019-04-07T09:53:25.683Z,21.87
2019-04-07T09:56:05.745Z,18.90
2019-04-07T09:58:48.452Z,19.30
2019-04-07T10:01:20.805Z,18.67
2019-04-07T10:03:56.168Z,18.87
2019-04-07T10:06:34.891Z,19.33
2019-04-07T10:09:12.476Z,19.33
2019-04-07T10:11:42.513Z,17.23
2019-04-07T10:14:15.528Z,16.57
2019-04-07T10:16:48.428Z,17.10
2019-04-07T10:19:37.417Z,17.40
2019-04-07T10:22:10.698Z,16.40
2019-04-07T10:24:41.534Z,15.70
2019-04-07T10:27:14.626Z,15.20
2019-04-07T10:29:45.632Z,14.10
2019-04-07T10:32:34.027Z,14.13
2019-04-07T10:35:20.423Z,12.23
2019-04-07T10:38:07.521Z,12.77
2019-04-07T10:40:37.914Z,14.00
2019-04-07T10:43:11.681Z,15.53
2019-04-07T10:45:41.828Z,13.80
2019-04-07T10:48:11.872Z,13.50
2019-04-07T10:50:42.629Z,15.60
2019-04-07T10:53:12.692Z,16.37
2019-04-07T10:55:43.099Z,16.20
2019-04-07T10:58:29.419Z,17.57
2019-04-07T11:01:15.597Z,18.23
2019-04-07T11:03:53.952Z,18.10
2019-04-07T11:06:27.195Z,17.07
2019-04-07T11:09:13.547Z,16.90
2019-04-07T11:11:52.426Z,16.63
2019-04-07T11:14:26.833Z,16.47
2019-04-07T11:16:56.904Z,17.33
2019-04-07T11:19:42.249Z,17.43
2019-04-07T11:22:28.552Z,16.70
2019-04-07T11:25:16.890Z,16.23
2019-04-07T11:28:02.589Z,16.83
2019-04-07T11:30:42.052Z,16.00
2019-04-07T11:33:20.981Z,14.30
2019-04-07T11:35:53.756Z,15.40
2019-04-07T11:38:41.887Z,14.27
2019-04-07T11:41:28.847Z,14.35
2019-04-07T11:44:01.981Z,12.82
2019-04-07T11:46:40.984Z,12.90
2019-04-07T11:49:13.084Z,11.90
2019-04-07T11:51:42.758Z,13.30
2019-04-07T11:54:13.026Z,13.40
2019-04-07T11:57:01.969Z,12.25
2019-04-07T11:59:50.300Z,12.37
2019-04-07T12:02:41.041Z,10.50
2019-04-07T12:05:14.539Z,11.93
2019-04-07T12:07:44.728Z,10.95
2019-04-07T12:10:15.857Z,11.05
2019-04-07T12:13:02.344Z,10.80
2019-04-07T12:15:33.462Z,10.93
2019-04-07T12:18:18.650Z,10.75
2019-04-07T12:20:50.755Z,10.48
2019-04-07T12:23:23.395Z,10.48
2019-04-07T12:25:52.742Z,11.25
2019-04-07T12:28:32.208Z,11.40
2019-04-07T12:31:05.368Z,11.88
2019-04-07T12:33:47.499Z,11.00
2019-04-07T12:36:28.910Z,9.63
2019-04-07T12:38:58.537Z,10.18
2019-04-07T12:41:31.869Z,9.73
2019-04-07T12:44:10.344Z,10.30
2019-04-07T12:46:44.239Z,8.87
2019-04-07T12:49:14.465Z,10.00
2019-04-07T12:51:44.507Z,9.67
2019-04-07T12:54:14.535Z,8.40
2019-04-07T12:57:03.635Z,8.55
2019-04-07T12:59:35.675Z,8.58
2019-04-07T13:02:09.321Z,8.97
2019-04-07T13:04:56.040Z,7.97
2019-04-07T13:07:37.478Z,7.50
2019-04-07T13:10:14.627Z,6.20
2019-04-07T13:12:47.841Z,7.00
2019-04-07T13:15:21.644Z,6.83
2019-04-07T13:17:51.767Z,7.00
2019-04-07T13:20:38.621Z,7.30
2019-04-07T13:23:12.332Z,8.07
2019-04-07T13:25:45.466Z,7.90
2019-04-07T13:28:16.315Z,8.00
2019-04-07T13:31:02.978Z,8.03
2019-04-07T13:33:50.074Z,7.80
2019-04-07T13:36:26.835Z,7.10
2019-04-07T13:39:02.787Z,6.97
2019-04-07T13:41:45.867Z,7.47
2019-04-07T13:44:13.251Z,5.97
2019-04-07T13:46:49.692Z,6.57
2019-04-07T13:49:32.799Z,5.53
2019-04-07T13:52:09.615Z,4.92
2019-04-07T13:54:40.365Z,4.15
2019-04-07T13:57:26.140Z,4.08
2019-04-07T14:00:05.283Z,4.15
2019-04-07T14:02:38.889Z,3.72
2019-04-07T14:05:11.249Z,4.00
2019-04-07T14:07:53.203Z,3.60
2019-04-07T14:10:31.822Z,3.92
2019-04-07T14:13:06.258Z,3.80
2019-04-07T14:15:45.555Z,3.62
2019-04-07T14:18:25.638Z,3.67
2019-04-07T14:20:56.200Z,3.60
2019-04-07T14:23:26.315Z,3.20
2019-04-07T14:26:02.395Z,2.92
2019-04-07T14:28:33.387Z,3.40
2019-04-07T14:31:20.715Z,3.62
2019-04-07T14:34:05.815Z,3.10
2019-04-07T14:36:36.162Z,2.90
2019-04-07T14:39:12.850Z,3.20
2019-04-07T14:42:04.786Z,3.37
2019-04-07T14:44:40.191Z,2.92
2019-04-07T14:47:16.245Z,3.30
2019-04-07T14:50:02.536Z,3.58
2019-04-07T14:52:44.837Z,3.50
2019-04-07T14:55:21.163Z,3.35
2019-04-07T14:58:01.271Z,5.55
2019-04-07T15:00:38.585Z,3.55
2019-04-07T15:03:07.342Z,3.75
2019-04-07T15:05:38.761Z,3.45
2019-04-07T15:08:21.580Z,4.10
2019-04-07T15:10:51.968Z,3.20
2019-04-07T15:13:27.046Z,3.60
2019-04-07T15:15:52.788Z,3.60
2019-04-07T15:18:21.549Z,4.25
2019-04-07T15:20:50.557Z,3.22
2019-04-07T15:23:19.771Z,3.35
2019-04-07T15:25:48.283Z,3.17
2019-04-07T15:28:17.413Z,3.45
2019-04-07T15:30:47.878Z,3.22
2019-04-07T15:33:16.060Z,3.52
2019-04-07T15:35:47.289Z,3.25
2019-04-07T15:38:15.339Z,3.85
2019-04-07T15:40:44.841Z,3.80
2019-04-07T15:43:13.363Z,3.40
2019-04-07T15:45:43.545Z,4.08
2019-04-07T15:48:12.456Z,4.55
2019-04-07T15:50:41.723Z,3.27
2019-04-07T15:53:13.447Z,3.77
2019-04-07T15:55:47.628Z,3.70
2019-04-07T15:58:10.720Z,4.12
2019-04-07T16:00:39.143Z,3.83
2019-04-07T16:03:08.488Z,3.37
2019-04-07T16:05:42.036Z,3.73
2019-04-07T16:08:07.107Z,3.73
2019-04-07T16:10:35.989Z,4.60
2019-04-07T16:13:04.754Z,3.83
2019-04-07T16:15:33.280Z,3.77
2019-04-07T16:18:04.766Z,4.50
2019-04-07T16:20:37.147Z,4.27
2019-04-07T16:23:01.927Z,3.47
2019-04-07T16:25:30.353Z,3.05
2019-04-07T16:27:58.820Z,3.40
2019-04-07T16:30:27.492Z,3.00
2019-04-07T16:32:59.714Z,3.53
2019-04-07T16:35:26.392Z,3.87
2019-04-07T16:37:55.396Z,3.37
2019-04-07T16:40:23.937Z,3.13
2019-04-07T16:43:04.346Z,3.37
2019-04-07T16:45:23.251Z,3.00
2019-04-07T16:47:51.644Z,3.40
2019-04-07T16:50:20.700Z,3.50
2019-04-07T16:52:49.864Z,3.00
2019-04-07T16:55:33.573Z,3.70
2019-04-07T16:58:03.154Z,3.30
2019-04-07T17:00:32.393Z,3.50
2019-04-07T17:03:01.332Z,3.80
2019-04-07T17:05:30.229Z,3.17
2019-04-07T17:07:59.473Z,3.27
2019-04-07T17:10:30.974Z,3.60
2019-04-07T17:13:00.476Z,4.10
2019-04-07T17:15:28.485Z,3.73
2019-04-07T17:17:57.034Z,3.77
2019-04-07T17:20:27.836Z,4.13
2019-04-07T17:22:56.776Z,4.73
2019-04-07T17:25:25.578Z,4.90
2019-04-07T17:27:54.017Z,4.67
2019-04-07T17:30:25.854Z,4.10
2019-04-07T17:32:53.647Z,4.30
2019-04-07T17:35:22.027Z,4.67
2019-04-07T17:37:50.972Z,4.20
2019-04-07T17:40:21.585Z,3.80
2019-04-07T17:42:53.038Z,4.63
2019-04-07T17:45:23.574Z,4.60
2019-04-07T17:48:10.042Z,5.43
2019-04-07T17:50:56.543Z,5.67
2019-04-07T17:53:45.447Z,5.07
2019-04-07T17:56:19.998Z,5.37
2019-04-07T17:58:52.365Z,5.10
2019-04-07T18:01:37.824Z,5.63
2019-04-07T18:04:20.804Z,5.63
2019-04-07T18:07:07.928Z,5.40
2019-04-07T18:09:43.822Z,5.17
2019-04-07T18:12:22.616Z,5.53
2019-04-07T18:15:05.783Z,5.50
2019-04-07T18:17:51.120Z,5.60
2019-04-07T18:20:28.240Z,5.10
2019-04-07T18:23:14.356Z,5.83
2019-04-07T18:25:47.880Z,5.67
2019-04-07T18:28:21.569Z,5.53
2019-04-07T18:30:50.035Z,6.27
2019-04-07T18:33:22.868Z,5.70
2019-04-07T18:35:58.611Z,6.63
2019-04-07T18:38:34.588Z,6.60
2019-04-07T18:41:10.651Z,6.63
2019-04-07T18:43:49.176Z,6.50
2019-04-07T18:46:16.882Z,7.40
2019-04-07T18:49:04.423Z,8.10
2019-04-07T18:51:33.645Z,7.70
2019-04-07T18:54:05.373Z,6.67
2019-04-07T18:56:41.830Z,7.57
2019-04-07T18:59:29.184Z,6.13
2019-04-07T19:02:11.879Z,6.07
2019-04-07T19:04:40.192Z,6.40
2019-04-07T19:07:10.923Z,6.47
2019-04-07T19:10:06.294Z,6.13
2019-04-07T19:12:38.752Z,6.70
2019-04-07T19:15:13.463Z,6.20
2019-04-07T19:18:02.152Z,6.60
2019-04-07T19:20:34.122Z,6.03
2019-04-07T19:23:09.902Z,6.87
2019-04-07T19:25:44.410Z,6.93
2019-04-07T19:28:18.044Z,6.13
2019-04-07T19:30:55.160Z,6.87
2019-04-07T19:33:26.831Z,7.27
2019-04-07T19:35:57.186Z,7.57
2019-04-07T19:38:29.869Z,7.73
2019-04-07T19:41:02.762Z,7.60
2019-04-07T19:43:53.067Z,8.17
2019-04-07T19:46:26.441Z,7.90
2019-04-07T19:48:57.192Z,7.53
2019-04-07T19:51:30.613Z,7.90
2019-04-07T19:54:06.781Z,7.83
2019-04-07T19:56:39.503Z,8.50
2019-04-07T19:59:10.337Z,8.87
2019-04-07T20:01:53.035Z,8.10
2019-04-07T20:04:42.345Z,9.10
2019-04-07T20:07:20.258Z,8.33
2019-04-07T20:10:08.839Z,8.70
2019-04-07T20:12:58.286Z,12.80
2019-04-07T20:15:45.069Z,30.43
2019-04-07T20:18:18.709Z,24.00
2019-04-07T20:20:48.808Z,18.87
2019-04-07T20:23:30.975Z,22.03
2019-04-07T20:25:59.810Z,31.03
2019-04-07T20:28:32.490Z,40.20
2019-04-07T20:31:21.924Z,21.30
2019-04-07T20:34:02.329Z,17.07
2019-04-07T20:36:30.459Z,16.27
2019-04-07T20:39:09.471Z,29.27
2019-04-07T20:41:54.707Z,52.20
2019-04-07T20:44:39.768Z,35.93
2019-04-07T20:47:21.764Z,25.47
2019-04-07T20:50:10.716Z,18.67
2019-04-07T20:52:46.064Z,15.67
2019-04-07T20:55:19.272Z,13.00
2019-04-07T20:57:54.062Z,10.90
2019-04-07T21:00:39.192Z,9.23
2019-04-07T21:03:26.558Z,10.53
2019-04-07T21:06:00.057Z,15.83
2019-04-07T21:08:39.915Z,16.67
2019-04-07T21:11:13.114Z,23.40
2019-04-07T21:13:52.498Z,26.30
2019-04-07T21:16:39.023Z,29.93
2019-04-07T21:19:25.714Z,32.87
2019-04-07T21:22:12.432Z,34.63
2019-04-07T21:24:45.598Z,37.60
2019-04-07T21:27:18.588Z,37.83
2019-04-07T21:30:06.887Z,39.20
2019-04-07T21:32:48.627Z,43.20
2019-04-07T21:35:21.289Z,44.43
2019-04-07T21:38:08.107Z,43.20
2019-04-07T21:40:48.013Z,42.87
2019-04-07T21:43:24.319Z,43.27
2019-04-07T21:45:58.867Z,44.73
2019-04-07T21:48:41.298Z,48.20
2019-04-07T21:51:16.470Z,47.93
2019-04-07T21:53:48.819Z,47.30
2019-04-07T21:56:18.873Z,49.50
2019-04-07T21:58:58.905Z,49.00
2019-04-07T22:01:41.310Z,49.60
2019-04-07T22:04:11.344Z,48.33
2019-04-07T22:06:53.563Z,49.70
2019-04-07T22:09:24.638Z,50.93
2019-04-07T22:11:54.668Z,52.00
2019-04-07T22:14:23.539Z,52.17
2019-04-07T22:16:51.944Z,52.43
2019-04-07T22:19:20.337Z,55.07
2019-04-07T22:21:53.290Z,54.23
2019-04-07T22:24:19.055Z,53.00
2019-04-07T22:26:49.922Z,52.03
2019-04-07T22:29:18.238Z,51.57
2019-04-07T22:31:51.455Z,51.00
2019-04-07T22:34:20.753Z,50.73
2019-04-07T22:36:49.687Z,48.87
2019-04-07T22:39:18.453Z,50.70
2019-04-07T22:41:46.925Z,50.60
2019-04-07T22:44:15.552Z,46.37
2019-04-07T22:46:48.097Z,49.73
2019-04-07T22:49:14.188Z,49.13
2019-04-07T22:51:44.649Z,48.30
2019-04-07T22:54:12.707Z,49.53
2019-04-07T22:56:41.113Z,49.33
2019-04-07T22:59:11.215Z,46.93
2019-04-07T23:01:39.595Z,47.73
2019-04-07T23:04:08.006Z,47.17
2019-04-07T23:06:36.383Z,48.17
2019-04-07T23:09:07.880Z,48.47
2019-04-07T23:11:36.379Z,48.50
2019-04-07T23:14:04.832Z,49.53
2019-04-07T23:16:33.244Z,50.70
2019-04-07T23:19:02.622Z,49.00
2019-04-07T23:21:31.964Z,47.93
2019-04-07T23:24:01.266Z,47.87
2019-04-07T23:26:29.879Z,49.67
2019-04-07T23:28:58.503Z,48.90
2019-04-07T23:31:27.945Z,47.40
2019-04-07T23:33:56.515Z,50.13
2019-04-07T23:36:24.988Z,48.03
2019-04-07T23:38:53.844Z,48.57
2019-04-07T23:41:22.343Z,50.27
2019-04-07T23:43:50.735Z,49.30
2019-04-07T23:46:24.286Z,49.00
2019-04-07T23:49:08.583Z,49.93
2019-04-07T23:51:37.188Z,49.27
2019-04-07T23:54:09.011Z,48.53
2019-04-07T23:56:39.411Z,50.00
2019-04-07T23:59:08.200Z,50.33
